Time;durP1;ratioP1;P1;durP2;ratioP2;P2;SDS_P1;SDS_P2;PMS_P1;PMS_P2;Temp;Humidity;BMP_temperature;BMP_pressure;BME280_temperature;BME280_humidity;BME280_pressure;Samples;Min_cycle;Max_cycle;Signal;HPM_P1;HPM_P2
2023/04/10 00:01:37;;;;;;;4.97;2.83;;;13.00;92.30;;;;;;5001088;28;20021;-87
2023/04/10 00:04:03;;;;;;;4.70;2.90;;;12.90;92.40;;;;;;4988400;28;20382;-87
2023/04/10 00:06:30;;;;;;;4.85;2.95;;;12.90;92.40;;;;;;4994061;28;20039;-86
2023/04/10 00:08:56;;;;;;;4.88;2.92;;;12.90;92.60;;;;;;5004433;28;20115;-87
2023/04/10 00:11:25;;;;;;;5.72;3.55;;;12.80;92.60;;;;;;4991506;28;20529;-87
2023/04/10 00:13:52;;;;;;;5.80;3.13;;;12.80;92.70;;;;;;5011397;28;20181;-86
2023/04/10 00:16:18;;;;;;;4.65;3.10;;;12.80;92.80;;;;;;4980599;28;20384;-86
2023/04/10 00:18:44;;;;;;;5.32;3.40;;;12.70;92.90;;;;;;5012854;28;20226;-87
2023/04/10 00:21:10;;;;;;;5.20;3.20;;;12.70;92.90;;;;;;5009165;28;20486;-86
2023/04/10 00:23:36;;;;;;;6.05;3.20;;;12.70;92.90;;;;;;5018886;28;20013;-87
2023/04/10 00:26:02;;;;;;;5.00;3.00;;;12.70;93.00;;;;;;5007317;28;20023;-87
2023/04/10 00:28:27;;;;;;;5.77;3.30;;;12.70;93.00;;;;;;5011499;28;20033;-86
2023/04/10 00:30:53;;;;;;;5.28;3.30;;;12.70;93.00;;;;;;5006624;28;20033;-86
2023/04/10 00:33:19;;;;;;;4.47;3.00;;;12.70;93.00;;;;;;5023151;28;20020;-86
2023/04/10 00:35:45;;;;;;;4.90;3.13;;;12.70;93.00;;;;;;4977646;28;20016;-87
2023/04/10 00:38:10;;;;;;;6.50;3.33;;;12.60;92.90;;;;;;4982968;28;20606;-87
2023/04/10 00:40:36;;;;;;;4.55;2.92;;;12.70;92.90;;;;;;4995283;28;20021;-86
2023/04/10 00:43:02;;;;;;;5.07;3.27;;;12.70;93.00;;;;;;5007231;28;20070;-87
2023/04/10 00:45:28;;;;;;;4.90;2.85;;;12.60;92.90;;;;;;5010333;28;20446;-87
2023/04/10 00:47:54;;;;;;;4.63;3.03;;;12.60;92.90;;;;;;5003932;28;20499;-88
2023/04/10 00:50:23;;;;;;;5.20;3.17;;;12.60;92.90;;;;;;5001358;28;20067;-86
2023/04/10 00:52:50;;;;;;;4.82;3.13;;;12.60;92.70;;;;;;4998808;28;22741;-87
2023/04/10 00:55:16;;;;;;;4.88;3.17;;;12.50;92.90;;;;;;4991403;28;20025;-87
2023/04/10 00:57:45;;;;;;;4.37;2.83;;;12.50;92.90;;;;;;4997636;28;20017;-86
2023/04/10 01:00:13;;;;;;;5.30;3.13;;;12.50;92.90;;;;;;5003061;28;20425;-89
2023/04/10 01:02:38;;;;;;;4.47;2.67;;;12.50;92.90;;;;;;4993179;28;20017;-87
2023/04/10 01:05:05;;;;;;;4.43;2.75;;;12.50;93.00;;;;;;4982006;28;20017;-87
2023/04/10 01:08:10;;;;;;;4.27;2.67;;;12.50;92.90;;;;;;4987051;28;20013;-86
2023/04/10 01:10:42;;;;;;;3.80;2.60;;;12.40;92.30;;;;;;5013809;28;20036;-86
2023/04/10 01:13:21;;;;;;;4.07;2.95;;;12.40;93.00;;;;;;5029686;28;20021;-88
2023/04/10 01:15:57;;;;;;;4.03;2.67;;;12.40;92.80;;;;;;4985499;28;20139;-88
2023/04/10 01:18:37;;;;;;;4.00;2.83;;;12.30;92.80;;;;;;4982145;28;20242;-86
2023/04/10 01:21:07;;;;;;;4.97;2.47;;;12.30;92.50;;;;;;4994988;28;20025;-88
2023/04/10 01:24:00;;;;;;;4.82;3.00;;;12.30;93.10;;;;;;4986339;28;20453;-86
2023/04/10 01:26:57;;;;;;;4.03;2.65;;;12.20;92.50;;;;;;4962190;28;20878;-87
2023/04/10 01:29:28;;;;;;;4.47;2.88;;;12.20;92.70;;;;;;4993888;28;20719;-86
2023/04/10 01:32:00;;;;;;;3.92;2.50;;;12.20;93.10;;;;;;4992369;28;20562;-87
2023/04/10 01:34:41;;;;;;;3.33;2.43;;;12.20;93.00;;;;;;5008727;28;20189;-86
2023/04/10 01:37:16;;;;;;;3.60;2.50;;;12.20;92.80;;;;;;5001587;28;20018;-86
2023/04/10 01:39:46;;;;;;;4.05;2.80;;;12.20;92.90;;;;;;5008447;28;20108;-87
2023/04/10 01:42:14;;;;;;;3.85;2.47;;;12.10;93.30;;;;;;4974194;28;20537;-86
2023/04/10 01:44:42;;;;;;;3.90;2.60;;;12.10;93.20;;;;;;5003605;28;20108;-87
2023/04/10 01:47:08;;;;;;;3.83;2.33;;;12.10;93.10;;;;;;5002528;28;20700;-87
2023/04/10 01:49:41;;;;;;;4.50;2.85;;;12.10;93.70;;;;;;5009352;28;20057;-86
2023/04/10 01:52:07;;;;;;;4.32;2.70;;;12.10;93.60;;;;;;4980579;28;20010;-86
2023/04/10 01:54:33;;;;;;;4.23;2.43;;;12.20;93.30;;;;;;5003896;28;20045;-87
2023/04/10 01:57:01;;;;;;;3.65;2.40;;;12.10;93.30;;;;;;4992055;28;20282;-86
2023/04/10 01:59:26;;;;;;;3.92;2.47;;;12.10;93.20;;;;;;4970369;28;20295;-87
2023/04/10 02:02:00;;;;;;;3.88;2.45;;;12.10;93.30;;;;;;4986592;28;20020;-86
2023/04/10 02:04:26;;;;;;;3.27;2.20;;;12.10;92.70;;;;;;4989730;28;20306;-86
2023/04/10 02:07:05;;;;;;;3.30;2.22;;;12.10;93.20;;;;;;5003763;28;20487;-86
2023/04/10 02:09:47;;;;;;;3.88;2.50;;;12.10;92.70;;;;;;5003591;28;20021;-87
2023/04/10 02:12:20;;;;;;;3.88;2.50;;;12.10;92.60;;;;;;5014879;28;20170;-86
2023/04/10 02:14:49;;;;;;;3.58;2.25;;;12.10;93.00;;;;;;4989907;28;20268;-87
2023/04/10 02:17:20;;;;;;;3.43;2.17;;;12.10;93.20;;;;;;4976043;28;20059;-87
2023/04/10 02:19:47;;;;;;;3.10;1.98;;;12.10;93.10;;;;;;5008377;28;20379;-87
2023/04/10 02:22:15;;;;;;;3.25;2.03;;;12.10;93.20;;;;;;4991341;28;23522;-86
2023/04/10 02:24:41;;;;;;;3.53;2.22;;;12.10;93.10;;;;;;5018440;28;20411;-86
2023/04/10 02:27:06;;;;;;;3.60;2.33;;;12.10;93.20;;;;;;4984343;28;20024;-86
2023/04/10 02:29:32;;;;;;;3.23;2.00;;;12.10;93.20;;;;;;4984926;28;20049;-86
2023/04/10 02:31:57;;;;;;;3.17;2.17;;;12.00;93.10;;;;;;5010895;28;20474;-87
2023/04/10 02:34:23;;;;;;;3.70;2.30;;;12.00;93.20;;;;;;4998348;28;20091;-85
2023/04/10 02:36:49;;;;;;;3.63;2.40;;;12.00;93.20;;;;;;5012101;28;20450;-87
2023/04/10 02:39:14;;;;;;;3.45;2.08;;;12.00;93.10;;;;;;4990110;28;20021;-86
2023/04/10 02:41:40;;;;;;;3.73;2.37;;;12.00;93.10;;;;;;5000899;28;20149;-86
2023/04/10 02:44:06;;;;;;;3.10;2.08;;;12.00;93.20;;;;;;5009460;28;20017;-86
2023/04/10 02:46:31;;;;;;;3.40;2.00;;;12.00;93.10;;;;;;4992423;28;20021;-86
2023/04/10 02:48:57;;;;;;;2.97;1.97;;;11.90;93.10;;;;;;5025430;28;20069;-86
2023/04/10 02:51:23;;;;;;;3.60;2.17;;;11.90;93.00;;;;;;4994908;28;20021;-86
2023/04/10 02:53:48;;;;;;;3.17;2.17;;;11.90;93.00;;;;;;4991846;28;20261;-86
2023/04/10 02:56:14;;;;;;;3.30;2.17;;;11.80;93.00;;;;;;5029714;28;20044;-86
2023/04/10 02:58:44;;;;;;;3.17;1.90;;;11.80;93.00;;;;;;5018504;28;20029;-86
2023/04/10 03:01:09;;;;;;;3.10;2.13;;;11.80;92.90;;;;;;5010264;28;20016;-87
2023/04/10 03:03:35;;;;;;;3.50;2.00;;;11.80;92.90;;;;;;4981458;28;20013;-86
2023/04/10 03:06:01;;;;;;;3.60;2.20;;;11.70;92.80;;;;;;5008671;28;20098;-86
2023/04/10 03:08:26;;;;;;;3.28;1.90;;;11.70;92.80;;;;;;5000552;28;20028;-86
2023/04/10 03:10:52;;;;;;;3.20;1.97;;;11.60;92.80;;;;;;5008885;28;20025;-86
2023/04/10 03:13:18;;;;;;;3.03;2.00;;;11.60;92.80;;;;;;4987067;28;20017;-86
2023/04/10 03:15:43;;;;;;;4.25;2.35;;;11.50;92.90;;;;;;4991658;28;20911;-86
2023/04/10 03:18:09;;;;;;;4.10;2.30;;;11.50;92.90;;;;;;5032263;28;20199;-86
2023/04/10 03:20:38;;;;;;;3.70;2.40;;;11.40;93.00;;;;;;5001578;28;20273;-87
2023/04/10 03:23:07;;;;;;;3.85;2.35;;;11.40;93.00;;;;;;5027318;28;20021;-86
2023/04/10 03:25:33;;;;;;;3.45;2.25;;;11.40;92.90;;;;;;4985409;28;20234;-86
2023/04/10 03:27:59;;;;;;;3.37;1.90;;;11.30;93.00;;;;;;5005169;28;20052;-87
2023/04/10 03:30:25;;;;;;;3.90;2.40;;;11.30;93.10;;;;;;5027160;28;20033;-86
2023/04/10 03:32:50;;;;;;;3.70;2.50;;;11.30;93.10;;;;;;5010402;28;20143;-86
2023/04/10 03:35:16;;;;;;;3.15;2.13;;;11.30;93.10;;;;;;4990628;28;20023;-86
2023/04/10 03:37:42;;;;;;;2.70;1.90;;;11.20;93.20;;;;;;5023601;28;20251;-86
2023/04/10 03:40:10;;;;;;;3.10;1.98;;;11.20;93.20;;;;;;5013426;28;20485;-87
2023/04/10 03:42:36;;;;;;;4.13;2.33;;;11.20;93.10;;;;;;4975802;28;20185;-86
2023/04/10 03:45:03;;;;;;;3.60;2.27;;;11.20;93.20;;;;;;5013642;28;20047;-87
2023/04/10 03:47:33;;;;;;;4.05;2.30;;;11.20;93.30;;;;;;4965577;28;20051;-86
2023/04/10 03:49:59;;;;;;;3.38;2.33;;;11.10;93.10;;;;;;4990325;28;20028;-86
2023/04/10 03:52:26;;;;;;;3.53;2.20;;;11.20;93.40;;;;;;5014224;28;20097;-86
2023/04/10 03:54:53;;;;;;;3.25;2.03;;;11.10;93.40;;;;;;5012819;28;20024;-87
2023/04/10 03:57:20;;;;;;;3.90;2.40;;;11.10;93.40;;;;;;4983223;28;20020;-86
2023/04/10 03:59:48;;;;;;;4.15;2.10;;;11.10;93.40;;;;;;5004862;28;20169;-86
2023/04/10 04:02:14;;;;;;;4.05;2.55;;;11.10;93.40;;;;;;4992209;28;20453;-86
2023/04/10 04:04:40;;;;;;;4.00;2.47;;;11.00;93.50;;;;;;5011659;28;20013;-86
2023/04/10 04:07:06;;;;;;;3.58;2.35;;;11.00;93.50;;;;;;4983180;28;20033;-86
2023/04/10 04:09:32;;;;;;;3.17;2.07;;;11.00;93.60;;;;;;5005161;28;20230;-86
2023/04/10 04:11:57;;;;;;;3.72;2.17;;;11.00;93.60;;;;;;5009211;28;20024;-87
2023/04/10 04:14:23;;;;;;;2.77;1.83;;;11.10;93.60;;;;;;5017796;28;20005;-86
2023/04/10 04:16:49;;;;;;;3.20;2.10;;;11.00;93.60;;;;;;4992285;28;20012;-86
2023/04/10 04:19:14;;;;;;;3.53;2.23;;;11.00;93.60;;;;;;4990125;28;20020;-86
2023/04/10 04:21:40;;;;;;;3.35;2.05;;;11.00;93.60;;;;;;5001637;28;20797;-86
2023/04/10 04:24:06;;;;;;;3.10;2.10;;;10.90;93.60;;;;;;4993646;28;20018;-86
2023/04/10 04:26:32;;;;;;;3.67;2.23;;;10.90;93.50;;;;;;5005867;28;20337;-86
2023/04/10 04:28:58;;;;;;;3.35;2.28;;;10.90;93.60;;;;;;4987254;28;20060;-86
2023/04/10 04:31:24;;;;;;;3.33;2.10;;;10.90;93.70;;;;;;5023415;28;20498;-86
2023/04/10 04:33:49;;;;;;;3.83;2.35;;;10.90;93.70;;;;;;5005806;28;20338;-86
2023/04/10 04:36:15;;;;;;;4.53;2.25;;;10.90;93.70;;;;;;5027318;28;20017;-86
2023/04/10 04:38:41;;;;;;;3.03;2.03;;;10.90;93.80;;;;;;4999059;28;20013;-86
2023/04/10 04:41:07;;;;;;;4.35;2.33;;;10.90;93.80;;;;;;5013870;28;20315;-86
2023/04/10 04:43:32;;;;;;;4.47;2.50;;;10.90;93.80;;;;;;4987288;28;20518;-85
2023/04/10 04:45:58;;;;;;;3.20;2.13;;;10.90;93.90;;;;;;5011811;28;20391;-86
2023/04/10 04:48:24;;;;;;;3.43;2.17;;;10.90;93.90;;;;;;5004950;28;20021;-86
2023/04/10 04:50:50;;;;;;;3.60;2.38;;;10.90;93.90;;;;;;4977238;28;20085;-87
2023/04/10 04:53:15;;;;;;;3.63;2.13;;;10.90;93.90;;;;;;5002169;28;20053;-86
2023/04/10 04:55:41;;;;;;;3.83;2.13;;;10.90;93.90;;;;;;5003587;28;20015;-87
2023/04/10 04:58:06;;;;;;;3.27;2.20;;;10.90;94.00;;;;;;5004384;28;20055;-85
2023/04/10 05:00:32;;;;;;;3.40;2.25;;;10.90;94.00;;;;;;4998244;28;20066;-86
2023/04/10 05:02:58;;;;;;;3.73;2.20;;;10.90;94.00;;;;;;4975025;28;20085;-86
2023/04/10 05:05:23;;;;;;;3.60;2.30;;;10.90;93.90;;;;;;5004188;28;20730;-86
2023/04/10 05:07:49;;;;;;;3.13;2.08;;;10.90;93.90;;;;;;5005814;28;20596;-86
2023/04/10 05:10:15;;;;;;;3.60;2.23;;;11.00;94.00;;;;;;4989504;28;20514;-86
2023/04/10 05:12:42;;;;;;;3.45;2.10;;;10.90;94.00;;;;;;5022572;28;20048;-86
2023/04/10 05:15:08;;;;;;;3.40;2.10;;;11.00;94.40;;;;;;4995546;28;20096;-86
2023/04/10 05:17:33;;;;;;;3.40;2.03;;;11.00;94.20;;;;;;5010664;28;20108;-86
2023/04/10 05:19:59;;;;;;;3.97;2.33;;;11.00;94.20;;;;;;4993384;28;20027;-85
2023/04/10 05:22:26;;;;;;;3.90;2.33;;;11.00;94.20;;;;;;4994605;28;20017;-86
2023/04/10 05:24:53;;;;;;;3.55;2.28;;;11.00;94.20;;;;;;5014737;28;20036;-86
2023/04/10 05:27:20;;;;;;;3.90;2.20;;;11.00;94.30;;;;;;5007836;28;20042;-86
2023/04/10 05:29:46;;;;;;;3.85;2.38;;;11.00;94.20;;;;;;5009038;28;20086;-86
2023/04/10 05:32:12;;;;;;;3.03;2.05;;;11.10;94.30;;;;;;4995689;28;20533;-86
2023/04/10 05:34:38;;;;;;;2.95;2.03;;;11.10;94.30;;;;;;4995942;28;20032;-86
2023/04/10 05:37:03;;;;;;;3.07;2.00;;;11.10;94.20;;;;;;4987136;28;20016;-85
2023/04/10 05:39:29;;;;;;;3.20;2.00;;;11.10;94.20;;;;;;4977286;28;20587;-86
2023/04/10 05:41:55;;;;;;;3.90;2.20;;;11.10;94.30;;;;;;4993709;28;20021;-86
2023/04/10 05:44:21;;;;;;;3.47;2.28;;;11.20;94.60;;;;;;5025434;28;20021;-86
2023/04/10 05:46:46;;;;;;;3.57;2.30;;;11.20;94.30;;;;;;4984683;28;20554;-86
2023/04/10 05:49:12;;;;;;;3.40;2.30;;;11.20;94.30;;;;;;5007109;28;20057;-86
2023/04/10 05:51:38;;;;;;;3.53;2.30;;;11.20;94.40;;;;;;4991286;28;20329;-87
2023/04/10 05:54:03;;;;;;;3.80;2.30;;;11.30;94.50;;;;;;5010817;28;20554;-85
2023/04/10 05:56:29;;;;;;;3.83;2.50;;;11.30;94.60;;;;;;5009101;28;21311;-86
2023/04/10 05:58:55;;;;;;;3.40;2.30;;;11.30;94.50;;;;;;5007901;28;20103;-87
2023/04/10 06:01:20;;;;;;;3.75;2.08;;;11.40;94.60;;;;;;4998992;28;20021;-86
2023/04/10 06:03:46;;;;;;;3.90;2.47;;;11.40;94.60;;;;;;4996326;28;20005;-85
2023/04/10 06:06:12;;;;;;;3.85;2.55;;;11.40;94.60;;;;;;5008185;28;20711;-86
2023/04/10 06:08:37;;;;;;;4.43;2.33;;;11.40;94.60;;;;;;4977498;28;20032;-85
2023/04/10 06:11:03;;;;;;;3.27;2.17;;;11.50;94.60;;;;;;4998331;28;20327;-85
2023/04/10 06:13:29;;;;;;;3.47;2.15;;;11.60;94.70;;;;;;5007342;28;20474;-87
2023/04/10 06:15:54;;;;;;;3.87;2.47;;;11.60;94.70;;;;;;4989549;28;20040;-86
2023/04/10 06:18:20;;;;;;;3.70;2.33;;;11.60;94.60;;;;;;5000850;28;20174;-87
2023/04/10 06:20:46;;;;;;;4.05;2.60;;;11.60;94.70;;;;;;5003897;28;20021;-86
2023/04/10 06:23:12;;;;;;;4.10;2.40;;;11.70;94.70;;;;;;4975266;28;20028;-86
2023/04/10 06:25:38;;;;;;;4.00;2.22;;;11.70;94.70;;;;;;4996936;28;20013;-86
2023/04/10 06:28:04;;;;;;;3.53;2.20;;;11.70;94.80;;;;;;4987756;28;20040;-86
2023/04/10 06:30:30;;;;;;;3.50;2.30;;;11.70;94.70;;;;;;5011130;28;20237;-86
2023/04/10 06:32:55;;;;;;;3.55;2.35;;;11.80;94.80;;;;;;4987393;28;20415;-86
2023/04/10 06:35:21;;;;;;;4.30;2.60;;;11.80;94.80;;;;;;5005339;28;20043;-86
2023/04/10 06:37:47;;;;;;;4.05;2.50;;;11.80;94.80;;;;;;4988185;28;20066;-86
2023/04/10 06:40:14;;;;;;;3.90;2.60;;;11.80;94.80;;;;;;4990026;28;20021;-87
2023/04/10 06:42:40;;;;;;;3.85;2.40;;;11.80;94.80;;;;;;5010527;28;20278;-86
2023/04/10 06:45:07;;;;;;;3.78;2.40;;;11.90;94.90;;;;;;5004867;28;20024;-85
2023/04/10 06:47:33;;;;;;;4.00;2.30;;;12.00;94.90;;;;;;4977195;28;20021;-86
2023/04/10 06:49:59;;;;;;;3.72;2.33;;;12.00;94.90;;;;;;5003068;28;20438;-86
2023/04/10 06:52:24;;;;;;;3.57;2.30;;;12.00;94.90;;;;;;5017303;28;20397;-86
2023/04/10 06:54:50;;;;;;;4.60;2.80;;;12.00;94.90;;;;;;4959563;28;20349;-86
2023/04/10 06:57:17;;;;;;;3.90;2.70;;;12.10;95.10;;;;;;4993445;28;20414;-87
2023/04/10 06:59:43;;;;;;;4.20;2.60;;;12.20;95.10;;;;;;5019394;28;20305;-86
2023/04/10 07:02:09;;;;;;;4.45;2.80;;;12.10;95.00;;;;;;5009965;28;20032;-86
2023/04/10 07:04:34;;;;;;;3.67;2.47;;;12.20;95.10;;;;;;4997620;28;20111;-86
2023/04/10 07:07:00;;;;;;;4.22;2.90;;;12.30;95.20;;;;;;4988254;28;20028;-87
2023/04/10 07:09:26;;;;;;;4.10;2.90;;;12.30;95.10;;;;;;4955597;28;20029;-88
2023/04/10 07:11:52;;;;;;;4.60;2.53;;;12.40;95.20;;;;;;4997302;28;20013;-86
2023/04/10 07:14:18;;;;;;;3.90;2.80;;;12.40;95.30;;;;;;4984022;28;20514;-85
2023/04/10 07:16:44;;;;;;;4.20;2.70;;;12.50;95.40;;;;;;5008639;28;20075;-85
2023/04/10 07:19:09;;;;;;;4.60;3.17;;;12.50;95.40;;;;;;4998202;28;20541;-85
2023/04/10 07:21:35;;;;;;;5.03;3.37;;;12.60;95.40;;;;;;4992029;28;20870;-86
2023/04/10 07:24:01;;;;;;;4.38;2.88;;;12.70;95.40;;;;;;4985559;28;20371;-84
2023/04/10 07:26:27;;;;;;;4.47;3.07;;;12.80;95.50;;;;;;4996438;28;20017;-85
2023/04/10 07:28:53;;;;;;;4.77;3.17;;;12.90;95.80;;;;;;5008377;28;20757;-86
2023/04/10 07:31:18;;;;;;;5.13;3.45;;;12.90;95.40;;;;;;5028271;28;20021;-84
2023/04/10 07:33:45;;;;;;;4.93;3.27;;;13.00;95.20;;;;;;5007045;28;20098;-84
2023/04/10 07:36:11;;;;;;;5.85;3.47;;;13.00;95.10;;;;;;4995250;28;20220;-86
2023/04/10 07:38:37;;;;;;;4.38;2.92;;;13.20;95.20;;;;;;5009938;28;20104;-86
2023/04/10 07:41:03;;;;;;;4.00;2.50;;;13.20;95.30;;;;;;4991656;28;20319;-85
2023/04/10 07:43:29;;;;;;;4.70;2.95;;;13.30;95.00;;;;;;4995975;28;20616;-86
2023/04/10 07:45:55;;;;;;;3.95;2.35;;;13.40;95.10;;;;;;5001574;28;20033;-84
2023/04/10 07:48:21;;;;;;;4.10;2.67;;;13.40;95.20;;;;;;4999492;28;20021;-85
2023/04/10 07:50:47;;;;;;;4.03;2.70;;;13.50;95.20;;;;;;5005757;28;20105;-85
2023/04/10 07:53:12;;;;;;;3.72;2.42;;;13.60;95.30;;;;;;5004518;28;20264;-86
2023/04/10 07:55:43;;;;;;;4.23;2.80;;;13.70;95.20;;;;;;4990657;28;20095;-85
2023/04/10 07:58:09;;;;;;;3.80;2.42;;;13.80;94.70;;;;;;4982566;28;20400;-86
2023/04/10 08:00:35;;;;;;;3.60;2.47;;;13.80;95.00;;;;;;4999332;28;20552;-86
2023/04/10 08:03:00;;;;;;;3.50;2.40;;;13.90;94.90;;;;;;5001649;28;20105;-86
2023/04/10 08:05:26;;;;;;;3.50;2.47;;;13.90;95.10;;;;;;5008728;28;20024;-85
2023/04/10 08:07:52;;;;;;;4.60;3.13;;;14.00;94.80;;;;;;5013614;28;20036;-86
2023/04/10 08:10:18;;;;;;;3.83;2.83;;;14.10;95.00;;;;;;5001202;28;20044;-85
2023/04/10 08:12:44;;;;;;;3.97;2.75;;;14.10;94.70;;;;;;4984401;28;20107;-85
2023/04/10 08:15:10;;;;;;;5.30;3.20;;;14.20;94.80;;;;;;4998610;28;20509;-85
2023/04/10 08:17:36;;;;;;;3.97;2.80;;;14.20;94.90;;;;;;5017738;28;20027;-85
2023/04/10 08:20:02;;;;;;;4.45;3.08;;;14.30;95.00;;;;;;5004690;28;20144;-85
2023/04/10 08:22:28;;;;;;;5.07;3.10;;;14.40;95.00;;;;;;4983226;28;20021;-84
2023/04/10 08:24:53;;;;;;;4.43;3.00;;;14.50;95.10;;;;;;5002191;28;20017;-86
2023/04/10 08:27:19;;;;;;;5.38;2.90;;;14.60;95.20;;;;;;4979505;28;21034;-85
2023/04/10 08:29:44;;;;;;;4.37;2.60;;;14.60;95.10;;;;;;4977133;28;20041;-85
2023/04/10 08:32:10;;;;;;;3.95;2.78;;;14.70;95.10;;;;;;4996707;28;20176;-84
2023/04/10 08:34:36;;;;;;;3.73;2.90;;;14.80;95.30;;;;;;4989340;28;20052;-84
2023/04/10 08:37:10;;;;;;;5.47;2.73;;;14.90;95.40;;;;;;4992767;28;20494;-87
2023/04/10 08:39:37;;;;;;;4.90;3.40;;;15.10;95.30;;;;;;5018253;28;20580;-84
2023/04/10 08:42:04;;;;;;;5.10;3.70;;;15.20;95.20;;;;;;4992876;28;20019;-87
2023/04/10 08:44:30;;;;;;;5.25;3.65;;;15.30;94.90;;;;;;5006671;28;20697;-86
2023/04/10 08:46:58;;;;;;;3.63;2.67;;;15.50;94.80;;;;;;4963621;28;20052;-85
2023/04/10 08:49:40;;;;;;;3.70;2.90;;;15.60;94.70;;;;;;5023862;28;20025;-88
2023/04/10 08:52:15;;;;;;;5.30;3.53;;;15.70;94.30;;;;;;5018406;28;20063;-87
2023/04/10 08:54:46;;;;;;;3.85;2.75;;;15.70;92.80;;;;;;5013929;28;20282;-87
2023/04/10 08:57:19;;;;;;;4.17;3.00;;;15.80;93.70;;;;;;5004679;28;20053;-86
2023/04/10 08:59:49;;;;;;;3.67;2.75;;;15.80;93.80;;;;;;5024256;28;20016;-85
2023/04/10 09:02:14;;;;;;;3.78;2.80;;;15.90;94.00;;;;;;4983200;28;20331;-86
2023/04/10 09:04:53;;;;;;;4.47;3.00;;;15.90;94.10;;;;;;4985011;28;20735;-86
2023/04/10 09:07:19;;;;;;;4.00;2.70;;;15.90;93.60;;;;;;4983253;28;20024;-86
2023/04/10 09:09:45;;;;;;;4.03;2.85;;;15.90;93.90;;;;;;5012187;28;20035;-86
2023/04/10 09:12:15;;;;;;;3.53;2.60;;;15.90;93.80;;;;;;4997747;28;20009;-86
2023/04/10 09:14:42;;;;;;;4.73;3.03;;;15.90;93.30;;;;;;5006238;28;20025;-88
2023/04/10 09:17:17;;;;;;;4.18;2.80;;;15.90;93.80;;;;;;5010257;28;20013;-86
2023/04/10 09:19:48;;;;;;;4.35;2.97;;;15.90;93.50;;;;;;5019106;28;20123;-87
2023/04/10 09:22:14;;;;;;;4.22;2.80;;;15.90;93.40;;;;;;4992205;28;20491;-86
2023/04/10 09:24:44;;;;;;;4.00;2.50;;;15.90;94.00;;;;;;4995777;28;20126;-85
2023/04/10 09:27:25;;;;;;;4.93;3.10;;;16.00;94.40;;;;;;5020994;28;20017;-84
2023/04/10 09:29:51;;;;;;;4.35;2.88;;;16.10;94.10;;;;;;4999953;28;20057;-89
2023/04/10 09:32:44;;;;;;;4.10;2.80;;;16.10;94.40;;;;;;4974016;28;20021;-86
2023/04/10 09:35:12;;;;;;;4.50;2.88;;;16.30;93.30;;;;;;5006754;28;20442;-87
2023/04/10 09:37:39;;;;;;;4.30;2.97;;;16.40;94.40;;;;;;5031154;28;20022;-85
2023/04/10 09:40:18;;;;;;;4.30;2.95;;;16.50;94.30;;;;;;4990352;28;20079;-87
2023/04/10 09:42:43;;;;;;;3.90;2.70;;;16.60;94.20;;;;;;4992934;28;20016;-86
2023/04/10 09:45:09;;;;;;;4.10;2.90;;;16.60;94.40;;;;;;4991453;28;20606;-86
2023/04/10 09:47:35;;;;;;;3.83;2.70;;;16.70;94.20;;;;;;4981176;28;20025;-86
2023/04/10 09:50:01;;;;;;;4.37;2.80;;;16.80;94.10;;;;;;5020697;28;20021;-87
2023/04/10 09:52:32;;;;;;;3.67;2.60;;;16.80;93.80;;;;;;4993728;28;20692;-85
2023/04/10 09:55:01;;;;;;;4.00;2.80;;;16.90;93.30;;;;;;4987238;28;20107;-86
2023/04/10 09:57:32;;;;;;;3.90;2.85;;;16.90;93.50;;;;;;5006550;28;20024;-87
2023/04/10 10:00:00;;;;;;;4.97;3.05;;;17.00;93.00;;;;;;4991518;28;20079;-86
2023/04/10 10:02:29;;;;;;;4.37;3.10;;;17.10;93.90;;;;;;5012258;28;20025;-85
2023/04/10 10:04:56;;;;;;;3.92;2.92;;;17.10;93.40;;;;;;5018202;28;20040;-86
2023/04/10 10:07:22;;;;;;;4.45;3.00;;;17.30;94.00;;;;;;4992604;28;20052;-86
2023/04/10 10:09:52;;;;;;;3.88;2.50;;;17.40;93.90;;;;;;5018804;28;20029;-86
2023/04/10 10:12:43;;;;;;;4.00;2.60;;;17.50;93.90;;;;;;4985358;28;20822;-86
2023/04/10 10:15:18;;;;;;;4.40;2.87;;;17.70;93.60;;;;;;4989635;28;20025;-86
2023/04/10 10:17:58;;;;;;;4.88;3.20;;;17.90;93.60;;;;;;4996525;28;21283;-87
2023/04/10 10:20:25;;;;;;;4.53;2.80;;;18.10;93.20;;;;;;5021071;28;20020;-88
2023/04/10 10:22:52;;;;;;;3.72;2.70;;;18.30;94.60;;;;;;5012040;28;20022;-88
2023/04/10 10:25:19;;;;;;;3.45;2.58;;;18.60;95.00;;;;;;4995052;28;20287;-85
2023/04/10 10:27:48;;;;;;;3.77;2.40;;;18.90;95.90;;;;;;4997406;28;20215;-87
2023/04/10 10:30:17;;;;;;;4.00;2.88;;;19.20;95.90;;;;;;4999047;28;20049;-85
2023/04/10 10:32:45;;;;;;;4.50;2.85;;;19.50;94.80;;;;;;5025609;28;20352;-84
2023/04/10 10:35:11;;;;;;;4.03;2.83;;;19.80;94.40;;;;;;5007836;28;20020;-86
2023/04/10 10:37:38;;;;;;;3.10;2.45;;;19.90;93.30;;;;;;5019716;28;20028;-87
2023/04/10 10:40:20;;;;;;;3.30;2.50;;;20.10;92.80;;;;;;5010130;28;20127;-87
2023/04/10 10:42:56;;;;;;;3.53;2.20;;;20.10;91.40;;;;;;5005558;28;20112;-88
2023/04/10 10:45:33;;;;;;;4.22;2.38;;;20.10;91.00;;;;;;5003561;28;20017;-86
2023/04/10 10:47:58;;;;;;;3.28;2.20;;;20.20;90.30;;;;;;4985306;28;20021;-87
2023/04/10 10:50:24;;;;;;;3.60;2.50;;;20.10;92.10;;;;;;4986514;28;20253;-85
2023/04/10 10:52:56;;;;;;;3.72;2.10;;;20.20;92.00;;;;;;5001078;28;20731;-86
2023/04/10 10:55:21;;;;;;;2.95;2.35;;;20.10;91.40;;;;;;4982932;28;20128;-86
2023/04/10 10:57:48;;;;;;;3.00;2.03;;;20.20;91.60;;;;;;4996646;28;20502;-88
2023/04/10 11:00:18;;;;;;;2.92;2.20;;;20.20;91.70;;;;;;5004193;28;20482;-86
2023/04/10 11:02:44;;;;;;;2.85;2.22;;;20.30;91.00;;;;;;5016923;28;20029;-89
2023/04/10 11:05:30;;;;;;;3.07;2.20;;;20.40;91.60;;;;;;5006715;28;20027;-87
2023/04/10 11:07:59;;;;;;;3.65;2.20;;;20.50;91.80;;;;;;5014865;28;20033;-87
2023/04/10 11:11:03;;;;;;;2.55;1.95;;;20.50;90.60;;;;;;4983664;28;20441;-87
2023/04/10 11:13:29;;;;;;;3.45;2.10;;;20.50;89.00;;;;;;5010698;28;20721;-87
2023/04/10 11:16:00;;;;;;;2.87;2.10;;;20.60;91.10;;;;;;5010131;28;20024;-87
2023/04/10 11:18:47;;;;;;;3.15;1.98;;;20.60;90.10;;;;;;4972981;28;20794;-86
2023/04/10 11:21:18;;;;;;;2.60;2.00;;;20.70;84.70;;;;;;4991418;28;20029;-85
2023/04/10 11:23:53;;;;;;;2.40;1.73;;;20.70;90.80;;;;;;5000716;28;20219;-87
2023/04/10 11:26:40;;;;;;;2.40;1.80;;;20.70;87.00;;;;;;5006865;28;20136;-86
2023/04/10 11:29:26;;;;;;;2.10;1.70;;;20.70;80.10;;;;;;4987212;28;1171425;-87
2023/04/10 11:32:02;;;;;;;2.60;1.80;;;20.70;87.70;;;;;;4973500;28;20716;-87
2023/04/10 11:34:32;;;;;;;2.38;1.90;;;20.60;87.70;;;;;;5006446;28;20520;-86
2023/04/10 11:37:02;;;;;;;3.25;1.80;;;20.60;88.80;;;;;;5010574;28;20471;-86
2023/04/10 11:39:29;;;;;;;2.35;1.63;;;20.60;88.20;;;;;;5020838;28;20052;-90
2023/04/10 11:41:56;;;;;;;3.13;2.00;;;20.70;88.10;;;;;;5029369;28;20025;-82
2023/04/10 11:44:25;;;;;;;2.72;2.13;;;20.60;86.60;;;;;;5019910;28;20017;-85
2023/04/10 11:46:51;;;;;;;2.50;1.92;;;20.70;85.00;;;;;;4993436;28;20037;-86
2023/04/10 11:49:19;;;;;;;2.40;1.90;;;20.60;86.40;;;;;;4994706;28;20505;-85
2023/04/10 11:51:49;;;;;;;2.88;1.92;;;20.60;86.30;;;;;;5007335;28;20029;-85
2023/04/10 11:54:16;;;;;;;2.30;1.87;;;20.60;84.70;;;;;;4994590;28;20026;-87
2023/04/10 11:57:03;;;;;;;2.30;1.70;;;20.60;85.90;;;;;;5008290;28;20026;-86
2023/04/10 11:59:32;;;;;;;2.33;1.92;;;20.60;85.60;;;;;;4984965;28;20132;-86
2023/04/10 12:02:08;;;;;;;2.22;1.80;;;20.50;85.40;;;;;;5025083;28;20097;-86
2023/04/10 12:04:36;;;;;;;2.50;2.10;;;20.50;85.60;;;;;;4966693;28;20526;-85
2023/04/10 12:07:02;;;;;;;3.13;1.97;;;20.50;84.90;;;;;;4988889;28;20036;-86
2023/04/10 12:09:27;;;;;;;2.80;2.13;;;20.40;84.80;;;;;;4998901;28;20247;-86
2023/04/10 12:11:59;;;;;;;2.47;1.88;;;20.50;84.30;;;;;;5024408;28;20037;-85
2023/04/10 12:14:34;;;;;;;2.20;1.60;;;20.40;83.80;;;;;;5016906;28;20430;-85
2023/04/10 12:17:01;;;;;;;1.47;1.30;;;20.30;82.60;;;;;;5010443;28;20428;-87
2023/04/10 12:19:27;;;;;;;2.70;1.75;;;20.30;86.00;;;;;;4970649;28;20043;-86
2023/04/10 12:21:54;;;;;;;3.20;1.80;;;20.30;84.70;;;;;;5026645;28;20029;-85
2023/04/10 12:24:46;;;;;;;2.58;1.80;;;20.20;83.60;;;;;;5000109;28;20126;-85
2023/04/10 12:27:16;;;;;;;2.20;1.60;;;20.20;76.30;;;;;;5004797;28;20021;-86
2023/04/10 12:29:42;;;;;;;2.33;1.77;;;20.10;82.60;;;;;;4981057;28;20049;-87
2023/04/10 12:32:08;;;;;;;2.47;1.88;;;20.10;82.60;;;;;;4987646;28;20502;-83
2023/04/10 12:34:35;;;;;;;2.08;1.75;;;20.00;81.30;;;;;;4979452;28;20036;-88
2023/04/10 12:37:01;;;;;;;3.08;1.80;;;19.90;82.80;;;;;;4953835;28;20018;-87
2023/04/10 12:39:28;;;;;;;2.73;1.70;;;19.90;83.10;;;;;;4981655;28;20026;-86
2023/04/10 12:42:19;;;;;;;2.75;1.60;;;19.70;82.20;;;;;;4991231;28;20033;-85
2023/04/10 12:44:53;;;;;;;2.10;1.80;;;19.60;83.10;;;;;;4986797;28;20513;-89
2023/04/10 12:47:19;;;;;;;2.80;1.90;;;19.50;82.20;;;;;;4978335;28;20021;-86
2023/04/10 12:50:05;;;;;;;2.37;1.67;;;19.40;83.20;;;;;;4965351;28;20255;-87
2023/04/10 12:52:30;;;;;;;2.25;1.60;;;19.30;79.30;;;;;;4964874;28;20354;-87
2023/04/10 12:55:20;;;;;;;2.40;1.73;;;19.20;83.70;;;;;;4981856;28;20175;-86